createdAt,value
2018-01-26T00:00:12.502Z,89.70
2018-01-26T00:02:40.020Z,89.90
2018-01-26T00:05:07.538Z,90.10
2018-01-26T00:07:35.025Z,90.20
2018-01-26T00:10:02.729Z,90.00
2018-01-26T00:12:30.999Z,89.90
2018-01-26T00:14:59.340Z,89.70
2018-01-26T00:17:26.847Z,89.70
2018-01-26T00:19:55.111Z,90.00
2018-01-26T00:22:22.633Z,90.00
2018-01-26T00:24:50.167Z,90.50
2018-01-26T00:27:18.448Z,89.20
2018-01-26T00:29:46.720Z,89.20
2018-01-26T00:32:14.995Z,89.70
2018-01-26T00:34:43.372Z,90.40
2018-01-26T00:37:10.968Z,90.10
2018-01-26T00:39:39.517Z,90.10
2018-01-26T00:42:07.205Z,90.10
2018-01-26T00:44:34.920Z,90.20
2018-01-26T00:47:02.460Z,90.20
2018-01-26T00:49:31.069Z,90.20
2018-01-26T00:51:58.601Z,90.10
2018-01-26T00:54:26.878Z,90.40
2018-01-26T00:56:54.404Z,90.40
2018-01-26T00:59:21.930Z,90.60
2018-01-26T01:01:49.451Z,90.50
2018-01-26T01:04:18.320Z,90.40
2018-01-26T01:06:45.932Z,90.50
2018-01-26T01:09:13.430Z,90.50
2018-01-26T01:11:40.945Z,90.50
2018-01-26T01:14:09.222Z,90.80
2018-01-26T01:16:38.161Z,90.60
2018-01-26T01:19:05.656Z,90.60
2018-01-26T01:21:33.167Z,90.70
2018-01-26T01:24:00.660Z,90.70
2018-01-26T01:26:28.183Z,90.50
2018-01-26T01:28:56.438Z,90.60
2018-01-26T01:31:23.955Z,90.60
2018-01-26T01:33:51.587Z,90.50
2018-01-26T01:36:19.854Z,90.50
2018-01-26T01:38:48.097Z,90.70
2018-01-26T01:41:15.608Z,90.60
2018-01-26T01:43:43.906Z,90.60
2018-01-26T01:46:11.424Z,90.60
2018-01-26T01:48:38.914Z,90.50
2018-01-26T01:51:07.183Z,90.70
2018-01-26T01:53:35.509Z,90.70
2018-01-26T01:56:03.003Z,90.40
2018-01-26T01:58:30.948Z,90.40
2018-01-26T02:00:58.452Z,90.50
2018-01-26T02:03:25.954Z,90.80
2018-01-26T02:05:54.286Z,90.70
2018-01-26T02:08:21.792Z,90.60
2018-01-26T02:10:50.037Z,90.70
2018-01-26T02:13:18.219Z,90.70
2018-01-26T02:15:45.800Z,90.60
2018-01-26T02:18:14.073Z,90.90
2018-01-26T02:20:41.606Z,90.70
2018-01-26T02:23:09.143Z,90.10
2018-01-26T02:25:36.639Z,90.00
2018-01-26T02:28:04.960Z,90.10
2018-01-26T02:30:33.230Z,90.30
2018-01-26T02:33:01.510Z,90.30
2018-01-26T02:35:29.776Z,90.40
2018-01-26T02:37:57.296Z,90.40
2018-01-26T02:40:24.833Z,90.40
2018-01-26T02:42:53.105Z,90.50
2018-01-26T02:45:21.378Z,90.70
2018-01-26T02:47:49.655Z,90.10
2018-01-26T02:50:17.388Z,90.20
2018-01-26T02:52:44.908Z,90.40
2018-01-26T02:55:13.180Z,90.70
2018-01-26T02:57:41.457Z,90.80
2018-01-26T03:00:09.703Z,90.70
2018-01-26T03:02:37.192Z,90.80
2018-01-26T03:05:05.478Z,90.80
2018-01-26T03:07:32.997Z,90.80
2018-01-26T03:10:00.488Z,90.70
2018-01-26T03:12:28.014Z,90.80
2018-01-26T03:14:55.539Z,90.80
2018-01-26T03:17:23.814Z,90.70
2018-01-26T03:19:52.122Z,90.70
2018-01-26T03:22:19.615Z,90.60
2018-01-26T03:24:47.105Z,90.60
2018-01-26T03:27:14.620Z,90.60
2018-01-26T03:29:42.154Z,90.70
2018-01-26T03:32:10.416Z,90.70
2018-01-26T03:34:37.889Z,90.70
2018-01-26T03:37:05.482Z,90.60
2018-01-26T03:39:32.986Z,90.80
2018-01-26T03:42:00.476Z,90.60
2018-01-26T03:44:30.485Z,90.70
2018-01-26T03:46:58.004Z,90.60
2018-01-26T03:49:25.631Z,90.60
2018-01-26T03:51:53.912Z,90.80
2018-01-26T03:54:22.200Z,90.90
2018-01-26T03:56:50.472Z,91.10
2018-01-26T03:59:17.987Z,91.10
2018-01-26T04:01:45.492Z,90.80
2018-01-26T04:04:13.759Z,90.70
2018-01-26T04:06:41.243Z,90.70
2018-01-26T04:09:09.519Z,90.90
2018-01-26T04:11:37.801Z,90.70
2018-01-26T04:14:06.071Z,90.90
2018-01-26T04:16:33.816Z,90.80
2018-01-26T04:19:01.310Z,90.90
2018-01-26T04:21:28.794Z,91.20
2018-01-26T04:23:57.060Z,91.30
2018-01-26T04:26:25.364Z,91.60
2018-01-26T04:28:52.866Z,91.30
2018-01-26T04:31:20.384Z,91.20
2018-01-26T04:33:47.920Z,91.00
2018-01-26T04:36:15.408Z,91.00
2018-01-26T04:38:43.675Z,90.70
2018-01-26T04:41:11.926Z,89.70
2018-01-26T04:43:39.425Z,89.70
2018-01-26T04:46:07.668Z,89.60
2018-01-26T04:48:35.168Z,89.60
2018-01-26T04:51:03.455Z,90.10
2018-01-26T04:53:31.744Z,90.30
2018-01-26T04:55:59.997Z,90.20
2018-01-26T04:58:28.292Z,90.10
2018-01-26T05:00:56.557Z,90.00
2018-01-26T05:03:24.826Z,89.20
2018-01-26T05:05:52.302Z,89.10
2018-01-26T05:08:19.808Z,89.30
2018-01-26T05:10:48.294Z,88.60
2018-01-26T05:13:15.796Z,89.00
2018-01-26T05:15:43.288Z,89.00
2018-01-26T05:18:11.559Z,89.90
2018-01-26T05:20:39.848Z,89.10
2018-01-26T05:23:07.332Z,89.10
2018-01-26T05:25:34.859Z,88.40
2018-01-26T05:28:02.371Z,89.40
2018-01-26T05:30:29.892Z,89.00
2018-01-26T05:32:57.428Z,89.40
2018-01-26T05:35:24.924Z,89.40
2018-01-26T05:37:53.189Z,89.90
2018-01-26T05:40:20.694Z,89.10
2018-01-26T05:42:48.241Z,88.70
2018-01-26T05:45:16.520Z,88.20
2018-01-26T05:47:44.790Z,87.20
2018-01-26T05:50:13.068Z,87.20
2018-01-26T05:52:41.342Z,87.90
2018-01-26T05:55:08.848Z,87.20
2018-01-26T05:57:36.343Z,87.50
2018-01-26T06:00:03.857Z,87.70
2018-01-26T06:02:32.215Z,88.10
2018-01-26T06:05:00.061Z,88.10
2018-01-26T06:07:27.593Z,88.40
2018-01-26T06:09:55.092Z,87.40
2018-01-26T06:12:22.598Z,88.00
2018-01-26T06:14:50.874Z,88.60
2018-01-26T06:17:19.168Z,88.60
2018-01-26T06:19:46.680Z,88.60
2018-01-26T06:22:14.238Z,88.50
2018-01-26T06:24:41.770Z,88.90
2018-01-26T06:27:09.287Z,89.10
2018-01-26T06:29:36.801Z,89.10
2018-01-26T06:32:04.302Z,87.80
2018-01-26T06:34:31.811Z,88.00
2018-01-26T06:37:00.073Z,88.70
2018-01-26T06:39:28.349Z,88.10
2018-01-26T06:41:56.627Z,87.70
2018-01-26T06:44:24.901Z,87.00
2018-01-26T06:46:53.195Z,87.60
2018-01-26T06:49:21.709Z,86.40
2018-01-26T06:51:49.248Z,86.40
2018-01-26T06:54:17.525Z,86.80
2018-01-26T06:56:45.805Z,87.00
2018-01-26T06:59:14.062Z,87.20
2018-01-26T07:01:41.594Z,87.10
2018-01-26T07:04:09.087Z,86.30
2018-01-26T07:06:36.697Z,86.60
2018-01-26T07:09:04.217Z,87.20
2018-01-26T07:11:31.749Z,87.30
2018-01-26T07:13:59.260Z,87.30
2018-01-26T07:16:26.833Z,87.30
2018-01-26T07:18:55.131Z,87.10
2018-01-26T07:21:22.666Z,87.10
2018-01-26T07:23:50.938Z,86.60
2018-01-26T07:26:18.461Z,86.60
2018-01-26T07:28:45.959Z,86.60
2018-01-26T07:31:13.478Z,86.60
2018-01-26T07:33:40.963Z,87.30
2018-01-26T07:36:08.468Z,86.90
2018-01-26T07:38:35.947Z,87.50
2018-01-26T07:41:03.490Z,87.40
2018-01-26T07:43:31.040Z,86.50
2018-01-26T07:45:58.537Z,86.50
2018-01-26T07:48:26.809Z,87.10
2018-01-26T07:50:55.087Z,86.60
2018-01-26T07:53:23.354Z,85.80
2018-01-26T07:55:50.876Z,85.70
2018-01-26T07:58:18.379Z,85.60
2018-01-26T08:00:45.896Z,85.40
2018-01-26T08:03:13.406Z,85.00
2018-01-26T08:05:40.928Z,85.40
2018-01-26T08:08:08.437Z,85.30
2018-01-26T08:10:35.944Z,85.40
2018-01-26T08:13:03.453Z,85.90
2018-01-26T08:15:30.955Z,85.90
2018-01-26T08:17:59.229Z,85.90
2018-01-26T08:20:27.483Z,85.50
2018-01-26T08:22:55.002Z,85.40
2018-01-26T08:25:22.515Z,85.40
2018-01-26T08:27:50.031Z,85.40
2018-01-26T08:30:17.580Z,84.80
2018-01-26T08:32:45.067Z,84.60
2018-01-26T08:35:12.565Z,84.60
2018-01-26T08:37:40.088Z,85.10
2018-01-26T08:40:07.600Z,85.40
2018-01-26T08:42:35.176Z,85.50
2018-01-26T08:45:03.438Z,85.00
2018-01-26T08:47:31.118Z,84.80
2018-01-26T08:49:59.448Z,85.10
2018-01-26T08:52:26.982Z,85.40
2018-01-26T08:54:55.232Z,84.80
2018-01-26T08:57:23.516Z,84.70
2018-01-26T08:59:51.019Z,84.60
2018-01-26T09:02:18.530Z,84.20
2018-01-26T09:04:46.049Z,83.90
2018-01-26T09:07:13.576Z,84.00
2018-01-26T09:09:41.856Z,84.20
2018-01-26T09:12:10.131Z,84.10
2018-01-26T09:14:38.440Z,84.10
2018-01-26T09:17:06.069Z,84.30
2018-01-26T09:19:33.596Z,84.20
2018-01-26T09:22:01.117Z,84.00
2018-01-26T09:24:29.402Z,84.70
2018-01-26T09:26:57.676Z,84.40
2018-01-26T09:29:25.967Z,84.40
2018-01-26T09:31:54.236Z,84.30
2018-01-26T09:34:21.779Z,84.30
2018-01-26T09:36:49.310Z,83.00
2018-01-26T09:39:17.720Z,82.20
2018-01-26T09:41:45.214Z,82.50
2018-01-26T09:44:13.492Z,83.50
2018-01-26T09:46:41.770Z,82.20
2018-01-26T09:49:10.046Z,81.50
2018-01-26T09:51:37.570Z,81.40
2018-01-26T09:54:05.125Z,82.30
2018-01-26T09:56:32.647Z,81.70
2018-01-26T09:59:00.945Z,81.70
2018-01-26T10:01:29.242Z,82.40
2018-01-26T10:03:56.764Z,82.40
2018-01-26T10:06:24.432Z,82.50
2018-01-26T10:08:51.949Z,82.80
2018-01-26T10:11:19.443Z,83.30
2018-01-26T10:13:46.974Z,82.50
2018-01-26T10:16:14.493Z,82.80
2018-01-26T10:18:42.776Z,83.50
2018-01-26T10:21:11.050Z,83.50
2018-01-26T10:23:39.325Z,83.50
2018-01-26T10:26:06.812Z,83.00
2018-01-26T10:28:34.312Z,82.70
2018-01-26T10:31:01.816Z,82.10
2018-01-26T10:33:30.114Z,82.90
2018-01-26T10:35:58.385Z,83.10
2018-01-26T10:38:26.669Z,83.00
2018-01-26T10:40:54.949Z,84.30
2018-01-26T10:43:23.225Z,85.10
2018-01-26T10:45:51.500Z,85.40
2018-01-26T10:48:19.026Z,85.30
2018-01-26T10:50:47.343Z,85.10
2018-01-26T10:53:15.640Z,85.30
2018-01-26T10:55:43.938Z,85.30
2018-01-26T10:58:11.429Z,85.30
2018-01-26T11:00:38.929Z,85.20
2018-01-26T11:03:06.963Z,84.80
2018-01-26T11:05:34.519Z,84.80
2018-01-26T11:08:02.750Z,86.00
2018-01-26T11:10:31.061Z,85.80
2018-01-26T11:12:58.555Z,86.50
2018-01-26T11:15:26.148Z,85.00
2018-01-26T11:17:53.654Z,85.00
2018-01-26T11:20:21.190Z,85.00
2018-01-26T11:22:48.685Z,85.50
2018-01-26T11:25:16.217Z,85.30
2018-01-26T11:27:43.812Z,84.90
2018-01-26T11:30:11.332Z,85.00
2018-01-26T11:32:39.627Z,85.20
2018-01-26T11:35:07.915Z,85.30
2018-01-26T11:37:36.270Z,85.50
2018-01-26T11:40:03.795Z,85.50
2018-01-26T11:42:31.352Z,85.60
2018-01-26T11:44:58.869Z,85.60
2018-01-26T11:47:26.365Z,85.90
2018-01-26T11:49:54.641Z,86.50
2018-01-26T11:52:22.904Z,86.50
2018-01-26T11:54:50.404Z,86.50
2018-01-26T11:57:17.894Z,85.60
2018-01-26T11:59:45.444Z,85.10
2018-01-26T12:02:12.979Z,84.70
2018-01-26T12:04:41.332Z,84.50
2018-01-26T12:07:08.871Z,84.50
2018-01-26T12:09:36.389Z,83.80
2018-01-26T12:12:04.653Z,83.40
2018-01-26T12:14:33.022Z,83.00
2018-01-26T12:17:00.522Z,83.00
2018-01-26T12:19:28.060Z,83.20
2018-01-26T12:21:56.344Z,82.00
2018-01-26T12:24:23.849Z,81.70
2018-01-26T12:26:51.353Z,82.10
2018-01-26T12:29:19.194Z,82.20
2018-01-26T12:31:47.460Z,80.80
2018-01-26T12:34:14.970Z,81.00
2018-01-26T12:36:42.465Z,80.70
2018-01-26T12:39:11.525Z,80.90
2018-01-26T12:41:39.733Z,80.90
2018-01-26T12:44:08.043Z,81.00
2018-01-26T12:46:35.570Z,81.00
2018-01-26T12:49:03.884Z,81.80
2018-01-26T12:51:31.406Z,81.80
2018-01-26T12:53:59.126Z,82.10
2018-01-26T12:56:26.637Z,81.70
2018-01-26T12:58:54.145Z,82.60
2018-01-26T13:01:21.654Z,81.90
2018-01-26T13:03:49.201Z,81.60
2018-01-26T13:06:16.765Z,82.00
2018-01-26T13:08:44.289Z,82.70
2018-01-26T13:11:11.815Z,82.00
2018-01-26T13:13:39.331Z,81.90
2018-01-26T13:16:06.834Z,81.30
2018-01-26T13:18:34.352Z,81.40
2018-01-26T13:21:01.841Z,81.30
2018-01-26T13:23:29.330Z,82.70
2018-01-26T13:25:57.724Z,81.90
2018-01-26T13:28:25.987Z,82.10
2018-01-26T13:30:53.496Z,82.10
2018-01-26T13:33:21.000Z,82.40
2018-01-26T13:35:48.541Z,82.20
2018-01-26T13:38:16.027Z,82.40
2018-01-26T13:40:43.536Z,82.50
2018-01-26T13:43:11.821Z,82.60
2018-01-26T13:45:40.797Z,82.50
2018-01-26T13:48:09.081Z,82.40
2018-01-26T13:50:37.348Z,82.80
2018-01-26T13:53:04.863Z,82.70
2018-01-26T13:55:32.372Z,83.00
2018-01-26T13:58:00.008Z,81.90
2018-01-26T14:00:27.561Z,83.10
2018-01-26T14:02:55.837Z,83.90
2018-01-26T14:05:23.426Z,83.90
2018-01-26T14:07:50.930Z,84.80
2018-01-26T14:10:19.208Z,85.50
2018-01-26T14:12:47.509Z,85.50
2018-01-26T14:15:14.993Z,85.40
2018-01-26T14:17:42.528Z,85.00
2018-01-26T14:20:10.809Z,82.90
2018-01-26T14:22:39.081Z,83.10
2018-01-26T14:25:07.353Z,83.00
2018-01-26T14:27:35.632Z,83.50
2018-01-26T14:30:03.133Z,83.90
2018-01-26T14:32:30.634Z,83.10
2018-01-26T14:34:58.173Z,83.00
2018-01-26T14:37:25.780Z,81.80
2018-01-26T14:39:53.399Z,81.30
2018-01-26T14:42:21.002Z,82.00
2018-01-26T14:44:49.904Z,80.10
2018-01-26T14:47:17.407Z,80.10
2018-01-26T14:49:44.981Z,80.10
2018-01-26T14:52:12.499Z,80.50
2018-01-26T14:54:40.021Z,80.50
2018-01-26T14:57:07.545Z,80.20
2018-01-26T14:59:36.437Z,81.00
2018-01-26T15:02:04.743Z,80.90
2018-01-26T15:04:33.473Z,81.00
2018-01-26T15:07:00.995Z,81.00
2018-01-26T15:09:28.509Z,81.10
2018-01-26T15:11:56.103Z,80.80
2018-01-26T15:14:24.484Z,82.10
2018-01-26T15:16:52.768Z,81.70
2018-01-26T15:19:21.104Z,81.80
2018-01-26T15:21:48.869Z,81.80
2018-01-26T15:24:16.393Z,82.00
2018-01-26T15:26:43.917Z,82.40
2018-01-26T15:29:11.450Z,82.50
2018-01-26T15:31:38.960Z,83.50
2018-01-26T15:34:07.262Z,83.10
2018-01-26T15:36:35.516Z,83.30
2018-01-26T15:39:03.825Z,83.00
2018-01-26T15:41:31.331Z,82.90
2018-01-26T15:43:58.852Z,82.80
2018-01-26T15:46:27.108Z,82.30
2018-01-26T15:48:54.596Z,82.30
2018-01-26T15:51:22.104Z,81.00
2018-01-26T15:53:49.607Z,81.40
2018-01-26T15:56:17.864Z,82.30
2018-01-26T15:58:45.389Z,82.20
2018-01-26T16:01:12.880Z,82.70
2018-01-26T16:03:40.406Z,82.90
2018-01-26T16:06:07.928Z,82.90
2018-01-26T16:08:35.499Z,82.70
2018-01-26T16:11:03.119Z,82.70
2018-01-26T16:13:30.642Z,82.30
2018-01-26T16:16:05.027Z,82.30
2018-01-26T16:18:32.559Z,82.20
2018-01-26T16:21:02.980Z,81.90
2018-01-26T16:23:30.497Z,82.00
2018-01-26T16:25:58.051Z,82.00
2018-01-26T16:28:25.580Z,82.10
2018-01-26T16:30:53.115Z,82.30
2018-01-26T16:33:21.869Z,82.30
2018-01-26T16:35:49.392Z,82.40
2018-01-26T16:38:17.280Z,82.50
2018-01-26T16:40:44.926Z,82.70
2018-01-26T16:43:12.446Z,82.60
2018-01-26T16:45:40.476Z,82.90
2018-01-26T16:48:08.017Z,83.10
2018-01-26T16:50:36.542Z,83.20
2018-01-26T16:53:04.076Z,83.20
2018-01-26T16:55:31.644Z,84.20
2018-01-26T16:57:59.177Z,83.10
2018-01-26T17:00:27.554Z,83.30
2018-01-26T17:02:55.834Z,83.00
2018-01-26T17:05:24.111Z,82.80
2018-01-26T17:07:51.669Z,82.10
2018-01-26T17:10:19.200Z,81.80
2018-01-26T17:12:46.724Z,80.80
2018-01-26T17:15:15.000Z,81.20
2018-01-26T17:17:43.274Z,81.50
2018-01-26T17:20:11.604Z,81.40
2018-01-26T17:22:39.100Z,81.30
2018-01-26T17:25:06.629Z,81.80
2018-01-26T17:27:34.136Z,82.20
2018-01-26T17:30:01.690Z,82.50
2018-01-26T17:32:29.974Z,83.20
2018-01-26T17:34:57.487Z,83.20
2018-01-26T17:37:24.988Z,83.30
2018-01-26T17:39:52.516Z,83.30
2018-01-26T17:42:20.016Z,83.60
2018-01-26T17:44:47.539Z,83.70
2018-01-26T17:47:15.036Z,84.00
2018-01-26T17:49:42.626Z,84.10
2018-01-26T17:52:10.500Z,84.30
2018-01-26T17:54:38.777Z,84.20
2018-01-26T17:57:06.964Z,83.90
2018-01-26T17:59:35.230Z,84.80
2018-01-26T18:02:02.750Z,84.10
2018-01-26T18:04:30.265Z,84.30
2018-01-26T18:06:58.556Z,85.10
2018-01-26T18:09:26.852Z,84.50
2018-01-26T18:11:54.364Z,84.40
2018-01-26T18:14:21.871Z,84.50
2018-01-26T18:16:50.151Z,84.40
2018-01-26T18:19:18.421Z,84.10
2018-01-26T18:21:46.722Z,84.20
2018-01-26T18:24:14.974Z,84.50
2018-01-26T18:26:43.260Z,85.40
2018-01-26T18:29:11.527Z,84.60
2018-01-26T18:31:39.061Z,84.60
2018-01-26T18:34:06.608Z,85.00
2018-01-26T18:36:34.132Z,85.00
2018-01-26T18:39:02.412Z,85.10
2018-01-26T18:41:29.954Z,85.60
2018-01-26T18:43:57.499Z,85.70
2018-01-26T18:46:25.199Z,85.10
2018-01-26T18:48:52.692Z,85.20
2018-01-26T18:51:20.227Z,84.80
2018-01-26T18:53:47.764Z,85.00
2018-01-26T18:56:15.306Z,84.70
2018-01-26T18:58:42.834Z,84.20
2018-01-26T19:01:11.141Z,84.60
2018-01-26T19:03:38.650Z,85.10
2018-01-26T19:06:06.228Z,85.20
2018-01-26T19:08:33.737Z,85.50
2018-01-26T19:11:01.948Z,85.60
2018-01-26T19:13:29.507Z,85.70
2018-01-26T19:15:57.031Z,86.00
2018-01-26T19:18:24.610Z,85.90
2018-01-26T19:20:52.149Z,86.30
2018-01-26T19:23:20.426Z,86.80
2018-01-26T19:25:48.698Z,86.50
2018-01-26T19:28:16.281Z,86.50
2018-01-26T19:30:44.648Z,86.00
2018-01-26T19:33:12.956Z,85.60
2018-01-26T19:35:40.674Z,85.50
2018-01-26T19:38:08.273Z,85.50
2018-01-26T19:40:36.598Z,85.70
2018-01-26T19:43:04.152Z,85.70
2018-01-26T19:45:31.703Z,85.30
2018-01-26T19:47:59.252Z,85.30
2018-01-26T19:50:26.787Z,85.60
2018-01-26T19:52:54.317Z,85.50
2018-01-26T19:55:21.820Z,85.30
2018-01-26T19:57:49.469Z,85.70
2018-01-26T20:00:17.019Z,85.90
2018-01-26T20:02:44.592Z,86.00
2018-01-26T20:05:29.752Z,85.80
2018-01-26T20:08:01.248Z,85.80
2018-01-26T20:10:29.693Z,85.50
2018-01-26T20:13:03.012Z,85.50
2018-01-26T20:15:30.506Z,85.30
2018-01-26T20:17:58.041Z,84.80
2018-01-26T20:20:25.560Z,85.00
2018-01-26T20:22:53.084Z,85.10
2018-01-26T20:25:21.394Z,84.90
2018-01-26T20:27:48.919Z,84.80
2018-01-26T20:30:17.358Z,85.00
2018-01-26T20:32:45.397Z,85.00
2018-01-26T20:35:13.755Z,84.80
2018-01-26T20:37:41.300Z,84.80
2018-01-26T20:40:08.824Z,85.10
2018-01-26T20:42:36.588Z,85.40
2018-01-26T20:45:04.134Z,85.50
2018-01-26T20:47:32.443Z,85.30
2018-01-26T20:50:00.009Z,85.30
2018-01-26T20:52:27.543Z,85.50
2018-01-26T20:54:55.821Z,85.20
2018-01-26T20:57:24.098Z,85.10
2018-01-26T20:59:52.472Z,85.10
2018-01-26T21:02:20.006Z,85.10
2018-01-26T21:04:48.445Z,85.40
2018-01-26T21:07:16.327Z,85.60
2018-01-26T21:09:44.413Z,85.70
2018-01-26T21:12:11.927Z,85.80
2018-01-26T21:14:40.234Z,85.90
2018-01-26T21:17:08.521Z,85.90
2018-01-26T21:19:36.104Z,85.90
2018-01-26T21:22:03.625Z,85.50
2018-01-26T21:24:32.223Z,85.80
2018-01-26T21:27:01.293Z,85.00
2018-01-26T21:29:28.798Z,85.00
2018-01-26T21:31:58.482Z,84.50
2018-01-26T21:34:25.976Z,84.60
2018-01-26T21:36:53.481Z,84.90
2018-01-26T21:39:21.439Z,84.70
2018-01-26T21:41:49.077Z,84.70
2018-01-26T21:44:16.702Z,84.90
2018-01-26T21:46:44.260Z,85.10
2018-01-26T21:49:11.756Z,85.00
2018-01-26T21:51:40.809Z,85.30
2018-01-26T21:54:08.311Z,85.20
2018-01-26T21:56:36.571Z,85.50
2018-01-26T21:59:04.143Z,85.40
2018-01-26T22:01:31.663Z,85.30
2018-01-26T22:03:59.237Z,85.30
2018-01-26T22:06:32.353Z,85.30
2018-01-26T22:08:59.939Z,85.30
2018-01-26T22:11:28.266Z,85.30
2018-01-26T22:13:55.753Z,85.30
2018-01-26T22:16:23.320Z,85.40
2018-01-26T22:18:50.886Z,85.00
2018-01-26T22:21:18.532Z,85.00
2018-01-26T22:23:46.293Z,85.20
2018-01-26T22:26:13.818Z,85.40
2018-01-26T22:28:42.081Z,84.90
2018-01-26T22:31:09.645Z,84.80
2018-01-26T22:33:37.137Z,84.80
2018-01-26T22:36:04.673Z,85.00
2018-01-26T22:38:32.214Z,85.20
2018-01-26T22:40:59.742Z,85.30
2018-01-26T22:43:27.303Z,85.50
2018-01-26T22:45:54.830Z,85.60
2018-01-26T22:48:23.122Z,86.10
2018-01-26T22:50:51.399Z,86.10
2018-01-26T22:53:19.767Z,86.10
2018-01-26T22:55:47.406Z,85.90
2018-01-26T22:58:15.387Z,85.60
2018-01-26T23:00:42.912Z,85.80
2018-01-26T23:03:10.425Z,86.10
2018-01-26T23:05:37.931Z,85.90
2018-01-26T23:08:07.149Z,86.00
2018-01-26T23:10:34.846Z,86.00
2018-01-26T23:13:03.611Z,85.50
2018-01-26T23:15:31.203Z,85.70
2018-01-26T23:17:59.656Z,85.50
2018-01-26T23:20:27.339Z,85.40
2018-01-26T23:22:54.942Z,85.50
2018-01-26T23:25:24.393Z,85.80
2018-01-26T23:27:51.940Z,85.50
2018-01-26T23:30:20.293Z,85.70
2018-01-26T23:32:48.596Z,85.70
2018-01-26T23:35:16.902Z,85.70
2018-01-26T23:37:46.783Z,85.50
2018-01-26T23:40:16.089Z,85.80
2018-01-26T23:42:43.575Z,85.80
2018-01-26T23:45:11.123Z,86.10
2018-01-26T23:47:39.458Z,85.30
2018-01-26T23:50:07.051Z,85.30
2018-01-26T23:52:34.669Z,85.30
2018-01-26T23:55:02.187Z,85.50
2018-01-26T23:57:29.868Z,85.30
2018-01-26T23:59:58.582Z,85.50
